sensor_id;sensor_type;location;lat;lon;timestamp;temperature;humidity
68943;DHT22;60852;52.190;4.422;2023-11-21T00:02:18;12.46;81.40
68943;DHT22;60852;52.190;4.422;2023-11-21T00:04:43;12.45;81.36
68943;DHT22;60852;52.190;4.422;2023-11-21T00:07:08;12.43;81.45
68943;DHT22;60852;52.190;4.422;2023-11-21T00:09:34;12.50;81.47
68943;DHT22;60852;52.190;4.422;2023-11-21T00:12:00;12.50;81.61
68943;DHT22;60852;52.190;4.422;2023-11-21T00:14:25;12.53;81.64
68943;DHT22;60852;52.190;4.422;2023-11-21T00:16:51;12.55;81.68
68943;DHT22;60852;52.190;4.422;2023-11-21T00:19:16;12.57;81.69
68943;DHT22;60852;52.190;4.422;2023-11-21T00:21:42;12.57;81.50
68943;DHT22;60852;52.190;4.422;2023-11-21T00:24:12;12.59;81.46
68943;DHT22;60852;52.190;4.422;2023-11-21T00:26:41;12.56;81.57
68943;DHT22;60852;52.190;4.422;2023-11-21T00:29:07;12.57;81.48
68943;DHT22;60852;52.190;4.422;2023-11-21T00:31:34;12.56;81.42
68943;DHT22;60852;52.190;4.422;2023-11-21T00:34:04;12.55;81.22
68943;DHT22;60852;52.190;4.422;2023-11-21T00:36:31;12.52;81.20
68943;DHT22;60852;52.190;4.422;2023-11-21T00:38:57;12.48;81.13
68943;DHT22;60852;52.190;4.422;2023-11-21T00:41:23;12.40;81.14
68943;DHT22;60852;52.190;4.422;2023-11-21T00:43:48;12.40;81.06
68943;DHT22;60852;52.190;4.422;2023-11-21T00:46:14;12.40;81.20
68943;DHT22;60852;52.190;4.422;2023-11-21T00:48:39;12.42;81.29
68943;DHT22;60852;52.190;4.422;2023-11-21T00:53:40;12.39;81.21
68943;DHT22;60852;52.190;4.422;2023-11-21T00:56:05;12.35;81.23
68943;DHT22;60852;52.190;4.422;2023-11-21T00:58:32;12.33;81.28
68943;DHT22;60852;52.190;4.422;2023-11-21T01:00:57;12.29;81.24
68943;DHT22;60852;52.190;4.422;2023-11-21T01:03:23;12.29;81.25
68943;DHT22;60852;52.190;4.422;2023-11-21T01:05:49;12.30;81.30
68943;DHT22;60852;52.190;4.422;2023-11-21T01:08:15;12.25;81.29
68943;DHT22;60852;52.190;4.422;2023-11-21T01:10:41;12.22;81.58
68943;DHT22;60852;52.190;4.422;2023-11-21T01:13:06;12.24;81.62
68943;DHT22;60852;52.190;4.422;2023-11-21T01:15:33;12.25;81.54
68943;DHT22;60852;52.190;4.422;2023-11-21T01:17:59;12.18;81.94
68943;DHT22;60852;52.190;4.422;2023-11-21T01:20:25;12.19;82.18
68943;DHT22;60852;52.190;4.422;2023-11-21T01:22:50;12.25;82.30
68943;DHT22;60852;52.190;4.422;2023-11-21T01:25:16;12.28;82.34
68943;DHT22;60852;52.190;4.422;2023-11-21T01:27:42;12.29;82.34
68943;DHT22;60852;52.190;4.422;2023-11-21T01:30:08;12.30;82.36
68943;DHT22;60852;52.190;4.422;2023-11-21T01:32:36;12.32;82.58
68943;DHT22;60852;52.190;4.422;2023-11-21T01:35:02;12.36;82.63
68943;DHT22;60852;52.190;4.422;2023-11-21T01:37:27;12.42;82.64
68943;DHT22;60852;52.190;4.422;2023-11-21T01:39:54;12.42;82.60
68943;DHT22;60852;52.190;4.422;2023-11-21T01:42:20;12.49;82.70
68943;DHT22;60852;52.190;4.422;2023-11-21T01:44:46;12.52;82.75
68943;DHT22;60852;52.190;4.422;2023-11-21T01:47:13;12.52;82.71
68943;DHT22;60852;52.190;4.422;2023-11-21T01:49:39;12.57;82.64
68943;DHT22;60852;52.190;4.422;2023-11-21T01:52:06;12.59;82.74
68943;DHT22;60852;52.190;4.422;2023-11-21T01:54:32;12.61;83.00
68943;DHT22;60852;52.190;4.422;2023-11-21T01:56:59;12.63;83.13
68943;DHT22;60852;52.190;4.422;2023-11-21T01:59:34;12.64;83.20
68943;DHT22;60852;52.190;4.422;2023-11-21T02:02:00;12.67;83.67
68943;DHT22;60852;52.190;4.422;2023-11-21T02:04:25;12.64;83.76
68943;DHT22;60852;52.190;4.422;2023-11-21T02:06:51;12.61;83.82
68943;DHT22;60852;52.190;4.422;2023-11-21T02:09:17;12.64;84.06
68943;DHT22;60852;52.190;4.422;2023-11-21T02:11:43;12.64;84.14
68943;DHT22;60852;52.190;4.422;2023-11-21T02:14:09;12.57;84.51
68943;DHT22;60852;52.190;4.422;2023-11-21T02:16:35;12.49;84.60
68943;DHT22;60852;52.190;4.422;2023-11-21T02:19:07;12.48;85.05
68943;DHT22;60852;52.190;4.422;2023-11-21T02:21:34;12.45;84.90
68943;DHT22;60852;52.190;4.422;2023-11-21T02:24:01;12.46;85.11
68943;DHT22;60852;52.190;4.422;2023-11-21T02:26:27;12.48;85.43
68943;DHT22;60852;52.190;4.422;2023-11-21T02:28:52;12.49;85.47
68943;DHT22;60852;52.190;4.422;2023-11-21T02:31:18;12.46;85.39
68943;DHT22;60852;52.190;4.422;2023-11-21T02:33:44;12.50;85.18
68943;DHT22;60852;52.190;4.422;2023-11-21T02:36:09;12.52;85.13
68943;DHT22;60852;52.190;4.422;2023-11-21T02:38:35;12.53;85.12
68943;DHT22;60852;52.190;4.422;2023-11-21T02:41:00;12.53;85.05
68943;DHT22;60852;52.190;4.422;2023-11-21T02:43:26;12.53;85.00
68943;DHT22;60852;52.190;4.422;2023-11-21T02:45:51;12.53;84.83
68943;DHT22;60852;52.190;4.422;2023-11-21T02:48:17;12.52;84.74
68943;DHT22;60852;52.190;4.422;2023-11-21T02:50:42;12.53;84.70
68943;DHT22;60852;52.190;4.422;2023-11-21T02:53:09;12.50;84.63
68943;DHT22;60852;52.190;4.422;2023-11-21T02:55:36;12.48;84.69
68943;DHT22;60852;52.190;4.422;2023-11-21T02:58:02;12.43;84.68
68943;DHT22;60852;52.190;4.422;2023-11-21T03:00:31;12.42;84.71
68943;DHT22;60852;52.190;4.422;2023-11-21T03:02:57;12.42;84.64
68943;DHT22;60852;52.190;4.422;2023-11-21T03:05:22;12.46;84.67
68943;DHT22;60852;52.190;4.422;2023-11-21T03:07:48;12.43;84.59
68943;DHT22;60852;52.190;4.422;2023-11-21T03:10:13;12.42;84.38
68943;DHT22;60852;52.190;4.422;2023-11-21T03:12:39;12.40;84.36
68943;DHT22;60852;52.190;4.422;2023-11-21T03:15:06;12.43;84.52
68943;DHT22;60852;52.190;4.422;2023-11-21T03:17:32;12.42;84.41
68943;DHT22;60852;52.190;4.422;2023-11-21T03:19:59;12.43;84.35
68943;DHT22;60852;52.190;4.422;2023-11-21T03:22:25;12.43;84.34
68943;DHT22;60852;52.190;4.422;2023-11-21T03:24:50;12.40;84.49
68943;DHT22;60852;52.190;4.422;2023-11-21T03:27:16;12.45;84.67
68943;DHT22;60852;52.190;4.422;2023-11-21T03:29:41;12.49;84.71
68943;DHT22;60852;52.190;4.422;2023-11-21T03:32:07;12.52;84.68
68943;DHT22;60852;52.190;4.422;2023-11-21T03:34:32;12.52;84.58
68943;DHT22;60852;52.190;4.422;2023-11-21T03:36:58;12.49;84.40
68943;DHT22;60852;52.190;4.422;2023-11-21T03:39:23;12.50;84.21
68943;DHT22;60852;52.190;4.422;2023-11-21T03:41:51;12.46;84.13
68943;DHT22;60852;52.190;4.422;2023-11-21T03:44:17;12.43;84.28
68943;DHT22;60852;52.190;4.422;2023-11-21T03:46:43;12.43;84.58
68943;DHT22;60852;52.190;4.422;2023-11-21T03:49:09;12.39;84.63
68943;DHT22;60852;52.190;4.422;2023-11-21T03:51:36;12.35;84.68
68943;DHT22;60852;52.190;4.422;2023-11-21T03:54:02;12.29;84.94
68943;DHT22;60852;52.190;4.422;2023-11-21T03:56:28;12.33;85.43
68943;DHT22;60852;52.190;4.422;2023-11-21T03:58:53;12.35;85.38
68943;DHT22;60852;52.190;4.422;2023-11-21T04:01:21;12.38;85.58
68943;DHT22;60852;52.190;4.422;2023-11-21T04:03:47;12.40;85.68
68943;DHT22;60852;52.190;4.422;2023-11-21T04:06:13;12.36;85.86
68943;DHT22;60852;52.190;4.422;2023-11-21T04:08:38;12.39;85.75
68943;DHT22;60852;52.190;4.422;2023-11-21T04:11:04;12.43;86.12
68943;DHT22;60852;52.190;4.422;2023-11-21T04:13:29;12.42;86.21
68943;DHT22;60852;52.190;4.422;2023-11-21T04:15:56;12.38;86.30
68943;DHT22;60852;52.190;4.422;2023-11-21T04:18:21;12.35;86.39
68943;DHT22;60852;52.190;4.422;2023-11-21T04:20:48;12.32;86.35
68943;DHT22;60852;52.190;4.422;2023-11-21T04:23:14;12.24;86.35
68943;DHT22;60852;52.190;4.422;2023-11-21T04:25:40;12.26;86.26
68943;DHT22;60852;52.190;4.422;2023-11-21T04:28:06;12.24;86.17
68943;DHT22;60852;52.190;4.422;2023-11-21T04:30:31;12.21;85.88
68943;DHT22;60852;52.190;4.422;2023-11-21T04:32:58;12.18;85.90
68943;DHT22;60852;52.190;4.422;2023-11-21T04:35:23;12.17;86.05
68943;DHT22;60852;52.190;4.422;2023-11-21T04:37:49;12.15;86.01
68943;DHT22;60852;52.190;4.422;2023-11-21T04:40:16;12.08;85.88
68943;DHT22;60852;52.190;4.422;2023-11-21T04:42:42;12.05;85.75
68943;DHT22;60852;52.190;4.422;2023-11-21T04:45:08;12.04;85.76
68943;DHT22;60852;52.190;4.422;2023-11-21T04:47:35;12.04;85.88
68943;DHT22;60852;52.190;4.422;2023-11-21T04:50:02;12.04;85.92
68943;DHT22;60852;52.190;4.422;2023-11-21T04:52:28;12.04;85.67
68943;DHT22;60852;52.190;4.422;2023-11-21T04:54:54;12.04;85.69
68943;DHT22;60852;52.190;4.422;2023-11-21T04:57:20;12.01;85.83
68943;DHT22;60852;52.190;4.422;2023-11-21T04:59:48;12.04;85.80
68943;DHT22;60852;52.190;4.422;2023-11-21T05:02:13;12.05;85.94
68943;DHT22;60852;52.190;4.422;2023-11-21T05:04:39;12.02;85.49
68943;DHT22;60852;52.190;4.422;2023-11-21T05:07:04;12.04;85.83
68943;DHT22;60852;52.190;4.422;2023-11-21T05:09:30;12.09;85.82
68943;DHT22;60852;52.190;4.422;2023-11-21T05:11:57;12.14;85.78
68943;DHT22;60852;52.190;4.422;2023-11-21T05:14:23;12.18;85.70
68943;DHT22;60852;52.190;4.422;2023-11-21T05:16:48;12.15;85.56
68943;DHT22;60852;52.190;4.422;2023-11-21T05:19:17;12.17;85.76
68943;DHT22;60852;52.190;4.422;2023-11-21T05:21:42;12.19;85.62
68943;DHT22;60852;52.190;4.422;2023-11-21T05:24:08;12.21;85.69
68943;DHT22;60852;52.190;4.422;2023-11-21T05:26:34;12.24;85.92
68943;DHT22;60852;52.190;4.422;2023-11-21T05:29:00;12.25;85.81
68943;DHT22;60852;52.190;4.422;2023-11-21T05:31:25;12.26;85.78
68943;DHT22;60852;52.190;4.422;2023-11-21T05:33:52;12.30;85.83
68943;DHT22;60852;52.190;4.422;2023-11-21T05:36:18;12.32;85.84
68943;DHT22;60852;52.190;4.422;2023-11-21T05:38:43;12.33;85.70
68943;DHT22;60852;52.190;4.422;2023-11-21T05:41:09;12.36;85.67
68943;DHT22;60852;52.190;4.422;2023-11-21T05:43:39;12.39;85.76
68943;DHT22;60852;52.190;4.422;2023-11-21T05:46:05;12.40;85.71
68943;DHT22;60852;52.190;4.422;2023-11-21T05:48:32;12.43;85.71
68943;DHT22;60852;52.190;4.422;2023-11-21T05:50:58;12.45;85.60
68943;DHT22;60852;52.190;4.422;2023-11-21T05:53:24;12.49;85.71
68943;DHT22;60852;52.190;4.422;2023-11-21T05:55:50;12.46;85.64
68943;DHT22;60852;52.190;4.422;2023-11-21T05:58:15;12.48;85.60
68943;DHT22;60852;52.190;4.422;2023-11-21T06:00:41;12.46;85.64
68943;DHT22;60852;52.190;4.422;2023-11-21T06:03:06;12.43;85.84
68943;DHT22;60852;52.190;4.422;2023-11-21T06:05:33;12.42;85.97
68943;DHT22;60852;52.190;4.422;2023-11-21T06:07:59;12.43;86.17
68943;DHT22;60852;52.190;4.422;2023-11-21T06:10:26;12.46;86.13
68943;DHT22;60852;52.190;4.422;2023-11-21T06:12:53;12.43;86.03
68943;DHT22;60852;52.190;4.422;2023-11-21T06:15:19;12.36;86.09
68943;DHT22;60852;52.190;4.422;2023-11-21T06:17:46;12.32;86.14
68943;DHT22;60852;52.190;4.422;2023-11-21T06:20:15;12.25;86.15
68943;DHT22;60852;52.190;4.422;2023-11-21T06:22:46;12.22;86.25
68943;DHT22;60852;52.190;4.422;2023-11-21T06:25:13;12.21;86.13
68943;DHT22;60852;52.190;4.422;2023-11-21T06:27:44;12.18;86.07
68943;DHT22;60852;52.190;4.422;2023-11-21T06:30:10;12.11;86.00
68943;DHT22;60852;52.190;4.422;2023-11-21T06:32:37;12.09;86.12
68943;DHT22;60852;52.190;4.422;2023-11-21T06:35:06;12.05;86.26
68943;DHT22;60852;52.190;4.422;2023-11-21T06:37:32;12.04;86.18
68943;DHT22;60852;52.190;4.422;2023-11-21T06:39:59;12.08;86.03
68943;DHT22;60852;52.190;4.422;2023-11-21T06:42:25;12.05;85.94
68943;DHT22;60852;52.190;4.422;2023-11-21T06:44:52;12.04;85.98
68943;DHT22;60852;52.190;4.422;2023-11-21T06:47:19;12.05;85.66
68943;DHT22;60852;52.190;4.422;2023-11-21T06:49:47;12.04;85.72
68943;DHT22;60852;52.190;4.422;2023-11-21T06:52:15;12.05;85.55
68943;DHT22;60852;52.190;4.422;2023-11-21T06:54:41;12.06;85.73
68943;DHT22;60852;52.190;4.422;2023-11-21T06:57:06;12.04;85.45
68943;DHT22;60852;52.190;4.422;2023-11-21T06:59:32;12.01;85.32
68943;DHT22;60852;52.190;4.422;2023-11-21T07:01:58;11.97;85.23
68943;DHT22;60852;52.190;4.422;2023-11-21T07:04:24;12.02;85.26
68943;DHT22;60852;52.190;4.422;2023-11-21T07:06:54;12.04;84.80
68943;DHT22;60852;52.190;4.422;2023-11-21T07:09:20;12.02;84.74
68943;DHT22;60852;52.190;4.422;2023-11-21T07:11:50;12.01;84.76
68943;DHT22;60852;52.190;4.422;2023-11-21T07:14:16;11.95;84.57
68943;DHT22;60852;52.190;4.422;2023-11-21T07:16:42;11.88;84.53
68943;DHT22;60852;52.190;4.422;2023-11-21T07:19:08;11.90;84.83
68943;DHT22;60852;52.190;4.422;2023-11-21T07:21:35;11.88;84.54
68943;DHT22;60852;52.190;4.422;2023-11-21T07:24:04;11.88;84.70
68943;DHT22;60852;52.190;4.422;2023-11-21T07:26:30;11.95;84.69
68943;DHT22;60852;52.190;4.422;2023-11-21T07:28:56;11.91;84.50
68943;DHT22;60852;52.190;4.422;2023-11-21T07:31:24;11.92;84.75
68943;DHT22;60852;52.190;4.422;2023-11-21T07:33:51;11.94;84.71
68943;DHT22;60852;52.190;4.422;2023-11-21T07:36:17;11.95;84.78
68943;DHT22;60852;52.190;4.422;2023-11-21T07:38:49;11.98;84.70
68943;DHT22;60852;52.190;4.422;2023-11-21T07:41:15;11.95;84.85
68943;DHT22;60852;52.190;4.422;2023-11-21T07:43:41;11.92;84.86
68943;DHT22;60852;52.190;4.422;2023-11-21T07:46:07;11.92;85.08
68943;DHT22;60852;52.190;4.422;2023-11-21T07:48:35;11.88;85.18
68943;DHT22;60852;52.190;4.422;2023-11-21T07:51:02;11.87;85.42
68943;DHT22;60852;52.190;4.422;2023-11-21T07:53:31;11.95;85.53
68943;DHT22;60852;52.190;4.422;2023-11-21T07:55:57;11.98;85.25
68943;DHT22;60852;52.190;4.422;2023-11-21T07:58:23;11.99;85.28
68943;DHT22;60852;52.190;4.422;2023-11-21T08:00:49;11.97;85.18
68943;DHT22;60852;52.190;4.422;2023-11-21T08:03:15;11.99;85.23
68943;DHT22;60852;52.190;4.422;2023-11-21T08:05:41;12.02;85.28
68943;DHT22;60852;52.190;4.422;2023-11-21T08:08:07;11.98;85.03
68943;DHT22;60852;52.190;4.422;2023-11-21T08:10:33;11.98;85.21
68943;DHT22;60852;52.190;4.422;2023-11-21T08:12:59;11.99;84.91
68943;DHT22;60852;52.190;4.422;2023-11-21T08:15:24;11.98;85.25
68943;DHT22;60852;52.190;4.422;2023-11-21T08:17:50;11.99;84.47
68943;DHT22;60852;52.190;4.422;2023-11-21T08:20:15;11.94;84.81
68943;DHT22;60852;52.190;4.422;2023-11-21T08:22:44;11.95;84.50
68943;DHT22;60852;52.190;4.422;2023-11-21T08:25:10;11.92;84.37
68943;DHT22;60852;52.190;4.422;2023-11-21T08:27:36;11.95;84.40
68943;DHT22;60852;52.190;4.422;2023-11-21T08:30:04;11.90;84.11
68943;DHT22;60852;52.190;4.422;2023-11-21T08:32:30;11.85;83.67
68943;DHT22;60852;52.190;4.422;2023-11-21T08:34:57;11.87;83.89
68943;DHT22;60852;52.190;4.422;2023-11-21T08:37:23;11.91;83.79
68943;DHT22;60852;52.190;4.422;2023-11-21T08:39:49;11.95;83.92
68943;DHT22;60852;52.190;4.422;2023-11-21T08:42:15;11.98;83.94
68943;DHT22;60852;52.190;4.422;2023-11-21T08:44:40;12.01;83.94
68943;DHT22;60852;52.190;4.422;2023-11-21T08:47:06;12.05;83.92
68943;DHT22;60852;52.190;4.422;2023-11-21T08:49:32;12.04;83.78
68943;DHT22;60852;52.190;4.422;2023-11-21T08:51:58;12.12;83.96
68943;DHT22;60852;52.190;4.422;2023-11-21T08:54:26;12.09;83.95
68943;DHT22;60852;52.190;4.422;2023-11-21T08:56:53;12.17;83.97
68943;DHT22;60852;52.190;4.422;2023-11-21T08:59:18;12.18;84.02
68943;DHT22;60852;52.190;4.422;2023-11-21T09:01:45;12.18;83.67
68943;DHT22;60852;52.190;4.422;2023-11-21T09:04:10;12.12;83.92
68943;DHT22;60852;52.190;4.422;2023-11-21T09:06:36;12.15;84.29
68943;DHT22;60852;52.190;4.422;2023-11-21T09:09:01;12.18;83.94
68943;DHT22;60852;52.190;4.422;2023-11-21T09:11:27;12.15;84.27
68943;DHT22;60852;52.190;4.422;2023-11-21T09:13:58;12.15;84.35
68943;DHT22;60852;52.190;4.422;2023-11-21T09:16:24;12.11;84.31
68943;DHT22;60852;52.190;4.422;2023-11-21T09:18:49;12.11;84.41
68943;DHT22;60852;52.190;4.422;2023-11-21T09:21:15;12.09;84.49
68943;DHT22;60852;52.190;4.422;2023-11-21T09:23:40;12.04;84.57
68943;DHT22;60852;52.190;4.422;2023-11-21T09:26:06;12.05;84.46
68943;DHT22;60852;52.190;4.422;2023-11-21T09:28:31;12.01;84.75
68943;DHT22;60852;52.190;4.422;2023-11-21T09:30:57;12.04;84.57
68943;DHT22;60852;52.190;4.422;2023-11-21T09:33:22;12.02;84.73
68943;DHT22;60852;52.190;4.422;2023-11-21T09:35:50;12.06;84.69
68943;DHT22;60852;52.190;4.422;2023-11-21T09:38:16;12.06;84.70
68943;DHT22;60852;52.190;4.422;2023-11-21T09:40:42;12.11;84.66
68943;DHT22;60852;52.190;4.422;2023-11-21T09:43:16;12.08;84.66
68943;DHT22;60852;52.190;4.422;2023-11-21T09:46:00;12.01;84.56
68943;DHT22;60852;52.190;4.422;2023-11-21T09:48:29;11.97;84.36
68943;DHT22;60852;52.190;4.422;2023-11-21T09:50:57;11.98;84.45
68943;DHT22;60852;52.190;4.422;2023-11-21T09:53:27;11.98;84.37
68943;DHT22;60852;52.190;4.422;2023-11-21T09:55:55;11.94;83.97
68943;DHT22;60852;52.190;4.422;2023-11-21T09:58:22;11.91;84.39
68943;DHT22;60852;52.190;4.422;2023-11-21T10:00:55;11.87;84.21
68943;DHT22;60852;52.190;4.422;2023-11-21T10:03:22;11.97;84.30
68943;DHT22;60852;52.190;4.422;2023-11-21T10:05:50;11.94;83.88
68943;DHT22;60852;52.190;4.422;2023-11-21T10:08:16;11.91;84.03
68943;DHT22;60852;52.190;4.422;2023-11-21T10:10:46;11.98;84.09
68943;DHT22;60852;52.190;4.422;2023-11-21T10:13:14;12.05;83.75
68943;DHT22;60852;52.190;4.422;2023-11-21T10:15:42;12.01;83.57
68943;DHT22;60852;52.190;4.422;2023-11-21T10:18:14;11.95;83.44
68943;DHT22;60852;52.190;4.422;2023-11-21T10:20:41;11.97;83.47
68943;DHT22;60852;52.190;4.422;2023-11-21T10:23:07;11.94;83.48
68943;DHT22;60852;52.190;4.422;2023-11-21T10:25:36;11.94;83.61
68943;DHT22;60852;52.190;4.422;2023-11-21T10:28:03;11.98;83.34
68943;DHT22;60852;52.190;4.422;2023-11-21T10:30:37;11.98;83.47
68943;DHT22;60852;52.190;4.422;2023-11-21T10:33:04;12.06;83.34
68943;DHT22;60852;52.190;4.422;2023-11-21T10:38:05;12.06;82.68
68943;DHT22;60852;52.190;4.422;2023-11-21T10:40:31;12.19;82.43
68943;DHT22;60852;52.190;4.422;2023-11-21T10:43:06;12.15;81.91
68943;DHT22;60852;52.190;4.422;2023-11-21T10:45:32;12.18;81.84
68943;DHT22;60852;52.190;4.422;2023-11-21T10:47:57;12.28;82.04
68943;DHT22;60852;52.190;4.422;2023-11-21T10:50:23;12.25;81.26
68943;DHT22;60852;52.190;4.422;2023-11-21T10:52:49;12.21;81.39
68943;DHT22;60852;52.190;4.422;2023-11-21T10:55:19;12.18;81.41
68943;DHT22;60852;52.190;4.422;2023-11-21T10:57:52;12.14;81.46
68943;DHT22;60852;52.190;4.422;2023-11-21T11:00:18;12.22;81.70
68943;DHT22;60852;52.190;4.422;2023-11-21T11:02:51;12.32;81.17
68943;DHT22;60852;52.190;4.422;2023-11-21T11:05:20;12.36;81.43
68943;DHT22;60852;52.190;4.422;2023-11-21T11:07:50;12.29;80.80
68943;DHT22;60852;52.190;4.422;2023-11-21T11:10:20;12.35;81.29
68943;DHT22;60852;52.190;4.422;2023-11-21T11:12:48;12.45;80.81
68943;DHT22;60852;52.190;4.422;2023-11-21T11:15:16;12.39;79.83
68943;DHT22;60852;52.190;4.422;2023-11-21T11:17:41;12.33;80.33
68943;DHT22;60852;52.190;4.422;2023-11-21T11:20:14;12.39;80.48
68943;DHT22;60852;52.190;4.422;2023-11-21T11:22:59;12.40;80.40
68943;DHT22;60852;52.190;4.422;2023-11-21T11:25:57;12.45;80.04
68943;DHT22;60852;52.190;4.422;2023-11-21T11:37:08;12.17;79.72
68943;DHT22;60852;52.190;4.422;2023-11-21T11:39:39;12.05;80.02
68943;DHT22;60852;52.190;4.422;2023-11-21T11:42:15;12.02;80.02
68943;DHT22;60852;52.190;4.422;2023-11-21T11:50:05;12.17;80.47
68943;DHT22;60852;52.190;4.422;2023-11-21T11:52:49;12.22;80.08
68943;DHT22;60852;52.190;4.422;2023-11-21T11:55:21;12.21;79.98
68943;DHT22;60852;52.190;4.422;2023-11-21T11:57:56;12.21;80.03
68943;DHT22;60852;52.190;4.422;2023-11-21T12:00:34;12.18;80.29
68943;DHT22;60852;52.190;4.422;2023-11-21T12:03:04;12.28;80.63
68943;DHT22;60852;52.190;4.422;2023-11-21T12:05:34;12.42;80.41
68943;DHT22;60852;52.190;4.422;2023-11-21T12:08:11;12.43;79.90
68943;DHT22;60852;52.190;4.422;2023-11-21T12:10:39;12.48;80.03
68943;DHT22;60852;52.190;4.422;2023-11-21T12:13:11;12.50;79.06
68943;DHT22;60852;52.190;4.422;2023-11-21T12:15:39;12.45;79.05
68943;DHT22;60852;52.190;4.422;2023-11-21T12:18:06;12.43;79.08
68943;DHT22;60852;52.190;4.422;2023-11-21T12:20:33;12.46;79.28
68943;DHT22;60852;52.190;4.422;2023-11-21T12:23:04;12.46;79.50
68943;DHT22;60852;52.190;4.422;2023-11-21T12:25:31;12.42;79.28
68943;DHT22;60852;52.190;4.422;2023-11-21T12:27:59;12.42;78.95
68943;DHT22;60852;52.190;4.422;2023-11-21T12:30:27;12.29;79.05
68943;DHT22;60852;52.190;4.422;2023-11-21T12:33:02;12.29;79.09
68943;DHT22;60852;52.190;4.422;2023-11-21T12:35:29;12.33;78.98
68943;DHT22;60852;52.190;4.422;2023-11-21T12:37:56;12.38;78.96
68943;DHT22;60852;52.190;4.422;2023-11-21T12:40:25;12.40;78.74
68943;DHT22;60852;52.190;4.422;2023-11-21T12:42:56;12.53;78.82
68943;DHT22;60852;52.190;4.422;2023-11-21T12:45:27;12.55;78.24
68943;DHT22;60852;52.190;4.422;2023-11-21T12:47:57;12.53;78.46
68943;DHT22;60852;52.190;4.422;2023-11-21T12:50:27;12.57;78.07
68943;DHT22;60852;52.190;4.422;2023-11-21T12:53:05;12.55;77.47
68943;DHT22;60852;52.190;4.422;2023-11-21T12:55:32;12.40;77.63
68943;DHT22;60852;52.190;4.422;2023-11-21T12:58:01;12.40;77.52
68943;DHT22;60852;52.190;4.422;2023-11-21T13:00:47;12.26;77.57
68943;DHT22;60852;52.190;4.422;2023-11-21T13:03:16;12.30;77.69
68943;DHT22;60852;52.190;4.422;2023-11-21T13:05:45;12.35;77.53
68943;DHT22;60852;52.190;4.422;2023-11-21T13:08:12;12.40;77.56
68943;DHT22;60852;52.190;4.422;2023-11-21T13:10:44;12.38;77.23
68943;DHT22;60852;52.190;4.422;2023-11-21T13:13:14;12.40;77.00
68943;DHT22;60852;52.190;4.422;2023-11-21T13:16:01;12.43;77.02
68943;DHT22;60852;52.190;4.422;2023-11-21T13:18:29;12.42;77.29
68943;DHT22;60852;52.190;4.422;2023-11-21T13:20:58;12.38;77.47
68943;DHT22;60852;52.190;4.422;2023-11-21T13:23:25;12.39;77.52
68943;DHT22;60852;52.190;4.422;2023-11-21T13:25:52;12.26;77.41
68943;DHT22;60852;52.190;4.422;2023-11-21T13:28:18;12.02;77.25
68943;DHT22;60852;52.190;4.422;2023-11-21T13:30:47;11.85;77.66
68943;DHT22;60852;52.190;4.422;2023-11-21T13:33:14;11.81;78.12
68943;DHT22;60852;52.190;4.422;2023-11-21T13:35:43;11.82;77.87
68943;DHT22;60852;52.190;4.422;2023-11-21T13:38:15;11.71;78.49
68943;DHT22;60852;52.190;4.422;2023-11-21T13:40:47;11.77;78.46
68943;DHT22;60852;52.190;4.422;2023-11-21T13:43:17;11.74;78.43
68943;DHT22;60852;52.190;4.422;2023-11-21T13:45:45;11.74;78.53
68943;DHT22;60852;52.190;4.422;2023-11-21T13:48:12;11.84;78.72
68943;DHT22;60852;52.190;4.422;2023-11-21T13:50:44;11.94;78.80
68943;DHT22;60852;52.190;4.422;2023-11-21T13:53:20;11.97;78.25
68943;DHT22;60852;52.190;4.422;2023-11-21T13:55:50;11.94;78.39
68943;DHT22;60852;52.190;4.422;2023-11-21T13:58:17;11.85;78.56
68943;DHT22;60852;52.190;4.422;2023-11-21T14:00:49;11.87;78.51
68943;DHT22;60852;52.190;4.422;2023-11-21T14:03:24;11.91;78.59
68943;DHT22;60852;52.190;4.422;2023-11-21T14:05:58;11.87;78.26
68943;DHT22;60852;52.190;4.422;2023-11-21T14:08:26;11.71;78.99
68943;DHT22;60852;52.190;4.422;2023-11-21T14:10:57;11.71;79.26
68943;DHT22;60852;52.190;4.422;2023-11-21T14:13:25;11.64;79.13
68943;DHT22;60852;52.190;4.422;2023-11-21T14:15:52;11.47;79.73
68943;DHT22;60852;52.190;4.422;2023-11-21T14:18:23;11.41;79.91
68943;DHT22;60852;52.190;4.422;2023-11-21T14:20:56;11.33;80.19
68943;DHT22;60852;52.190;4.422;2023-11-21T14:23:21;11.27;79.92
68943;DHT22;60852;52.190;4.422;2023-11-21T14:25:48;11.15;80.00
68943;DHT22;60852;52.190;4.422;2023-11-21T14:28:15;11.12;80.37
68943;DHT22;60852;52.190;4.422;2023-11-21T14:30:41;11.13;80.25
68943;DHT22;60852;52.190;4.422;2023-11-21T14:33:08;11.16;80.34
68943;DHT22;60852;52.190;4.422;2023-11-21T14:35:35;11.16;80.59
68943;DHT22;60852;52.190;4.422;2023-11-21T14:38:00;11.09;80.78
68943;DHT22;60852;52.190;4.422;2023-11-21T14:40:28;11.02;80.77
68943;DHT22;60852;52.190;4.422;2023-11-21T14:43:02;10.99;80.85
68943;DHT22;60852;52.190;4.422;2023-11-21T14:45:34;10.99;80.96
68943;DHT22;60852;52.190;4.422;2023-11-21T14:48:03;10.99;80.93
68943;DHT22;60852;52.190;4.422;2023-11-21T14:50:35;10.92;80.78
68943;DHT22;60852;52.190;4.422;2023-11-21T14:53:09;10.88;80.52
68943;DHT22;60852;52.190;4.422;2023-11-21T14:55:36;10.89;80.80
68943;DHT22;60852;52.190;4.422;2023-11-21T14:58:04;10.88;80.71
68943;DHT22;60852;52.190;4.422;2023-11-21T15:00:30;10.86;81.03
68943;DHT22;60852;52.190;4.422;2023-11-21T15:03:09;10.86;80.78
68943;DHT22;60852;52.190;4.422;2023-11-21T15:05:36;10.85;81.16
68943;DHT22;60852;52.190;4.422;2023-11-21T15:08:04;10.71;80.86
68943;DHT22;60852;52.190;4.422;2023-11-21T15:10:52;10.72;81.09
68943;DHT22;60852;52.190;4.422;2023-11-21T15:13:20;10.69;81.03
68943;DHT22;60852;52.190;4.422;2023-11-21T15:15:47;10.65;81.20
68943;DHT22;60852;52.190;4.422;2023-11-21T15:18:12;10.62;81.38
68943;DHT22;60852;52.190;4.422;2023-11-21T15:20:40;10.57;81.57
68943;DHT22;60852;52.190;4.422;2023-11-21T15:23:05;10.58;81.12
68943;DHT22;60852;52.190;4.422;2023-11-21T15:25:31;10.65;81.03
68943;DHT22;60852;52.190;4.422;2023-11-21T15:27:57;10.65;80.88
68943;DHT22;60852;52.190;4.422;2023-11-21T15:30:23;10.67;80.24
68943;DHT22;60852;52.190;4.422;2023-11-21T15:32:51;10.68;80.44
68943;DHT22;60852;52.190;4.422;2023-11-21T15:35:17;10.71;80.31
68943;DHT22;60852;52.190;4.422;2023-11-21T15:37:42;10.73;80.45
68943;DHT22;60852;52.190;4.422;2023-11-21T15:40:10;10.75;80.30
68943;DHT22;60852;52.190;4.422;2023-11-21T15:42:36;10.79;80.44
68943;DHT22;60852;52.190;4.422;2023-11-21T15:45:03;10.79;80.72
68943;DHT22;60852;52.190;4.422;2023-11-21T15:47:32;10.79;80.55
68943;DHT22;60852;52.190;4.422;2023-11-21T15:49:58;10.78;79.89
68943;DHT22;60852;52.190;4.422;2023-11-21T15:52:23;10.81;80.27